Time;durP1;ratioP1;P1;durP2;ratioP2;P2;SDS_P1;SDS_P2;PMS_P1;PMS_P2;Temp;Humidity;BMP_temperature;BMP_pressure;BME280_temperature;BME280_humidity;BME280_pressure;Samples;Min_cycle;Max_cycle;Signal;HPM_P1;HPM_P2
2022/01/30 00:00:08;;;;;;;1.93;1.27;;;6.50;99.90;;;;;;4902465;29;20501;-57
2022/01/30 00:02:36;;;;;;;16.17;1.70;;;6.50;99.90;;;;;;4902801;29;20462;-56
2022/01/30 00:05:04;;;;;;;17.17;3.60;;;6.50;99.90;;;;;;4903077;29;20475;-56
2022/01/30 00:07:30;;;;;;;2.03;1.10;;;6.40;99.90;;;;;;4905494;29;20559;-59
2022/01/30 00:09:57;;;;;;;10.93;3.57;;;6.40;99.90;;;;;;4906679;29;20460;-59
2022/01/30 00:12:33;;;;;;;2.73;1.90;;;6.40;99.90;;;;;;4906393;29;20451;-56
2022/01/30 00:15:00;;;;;;;0.80;0.50;;;6.30;99.90;;;;;;4908689;29;20459;-51
2022/01/30 00:17:36;;;;;;;1.93;1.13;;;6.30;99.90;;;;;;4908812;29;20466;-57
2022/01/30 00:20:11;;;;;;;6.70;1.30;;;6.30;99.90;;;;;;4910230;29;20467;-60
2022/01/30 00:22:47;;;;;;;11.47;1.83;;;6.40;99.90;;;;;;4908607;29;20841;-59
2022/01/30 00:25:19;;;;;;;6.30;2.50;;;6.40;99.90;;;;;;4906379;29;20478;-59
2022/01/30 00:27:50;;;;;;;3.63;1.50;;;6.40;99.90;;;;;;4905908;29;20935;-59
2022/01/30 00:30:17;;;;;;;10.33;1.47;;;6.40;99.90;;;;;;4906443;29;20527;-59
2022/01/30 00:32:45;;;;;;;19.53;1.87;;;6.50;99.90;;;;;;4906239;29;20441;-56
2022/01/30 00:35:14;;;;;;;12.33;1.00;;;6.50;99.90;;;;;;4906019;29;20459;-57
2022/01/30 00:37:43;;;;;;;3.10;1.13;;;6.50;99.90;;;;;;4905528;29;20486;-53
2022/01/30 00:40:11;;;;;;;3.00;1.23;;;6.60;99.90;;;;;;4906127;29;20452;-59
2022/01/30 00:42:38;;;;;;;3.87;3.17;;;6.60;99.90;;;;;;4905571;29;20548;-58
2022/01/30 00:45:05;;;;;;;1.60;1.30;;;6.70;99.90;;;;;;4905503;29;20454;-58
2022/01/30 00:47:32;;;;;;;11.07;1.43;;;6.70;99.90;;;;;;4904434;29;20970;-55
2022/01/30 00:49:59;;;;;;;1.97;0.73;;;6.70;99.90;;;;;;4905586;29;20482;-59
2022/01/30 00:52:27;;;;;;;1.13;0.93;;;6.70;99.90;;;;;;4905784;29;20466;-57
2022/01/30 00:54:54;;;;;;;1.80;0.90;;;6.70;99.90;;;;;;4905201;29;20478;-54
2022/01/30 00:57:21;;;;;;;1.27;0.83;;;6.70;99.90;;;;;;4904944;29;20534;-53
2022/01/30 00:59:48;;;;;;;1.53;0.97;;;6.60;99.90;;;;;;4905527;29;20449;-59
2022/01/30 01:02:15;;;;;;;1.57;0.93;;;6.60;99.90;;;;;;4905005;29;20488;-55
2022/01/30 01:04:42;;;;;;;7.53;1.10;;;6.50;99.90;;;;;;4905161;29;20459;-57
2022/01/30 01:07:14;;;;;;;1.90;1.27;;;6.40;99.90;;;;;;4905271;29;20475;-57
2022/01/30 01:09:53;;;;;;;9.50;1.63;;;6.40;99.90;;;;;;4905312;29;20467;-56
2022/01/30 01:12:51;;;;;;;8.27;1.70;;;6.40;99.90;;;;;;4905430;29;20472;-52
2022/01/30 01:21:00;;;;;;;6.30;3.00;;;6.50;99.90;;;;;;4906477;29;20589;-53
2022/01/30 01:23:28;;;;;;;5.67;1.10;;;6.50;99.90;;;;;;4906249;29;20541;-58
2022/01/30 01:26:00;;;;;;;1.47;0.93;;;6.50;99.90;;;;;;4905383;29;20463;-59
2022/01/30 01:28:28;;;;;;;13.63;1.77;;;6.60;99.90;;;;;;4886596;29;20444;-57
2022/01/30 01:30:55;;;;;;;10.83;1.30;;;6.60;99.90;;;;;;4903013;29;21108;-56
2022/01/30 01:33:30;;;;;;;2.90;1.17;;;6.70;99.90;;;;;;4904878;29;20484;-59
2022/01/30 01:35:59;;;;;;;3.73;1.97;;;6.70;99.90;;;;;;4905007;29;20470;-57
2022/01/30 01:38:26;;;;;;;5.83;1.73;;;6.70;99.90;;;;;;4905131;29;20454;-59
2022/01/30 01:40:55;;;;;;;1.60;0.80;;;6.80;99.90;;;;;;4904637;29;20503;-59
2022/01/30 01:43:24;;;;;;;6.50;2.30;;;6.80;99.90;;;;;;4903742;29;20511;-60
2022/01/30 01:45:53;;;;;;;2.00;1.80;;;6.80;99.90;;;;;;4904172;29;20527;-58
2022/01/30 01:48:20;;;;;;;5.33;1.73;;;6.80;99.90;;;;;;4904545;29;20460;-59
2022/01/30 01:50:53;;;;;;;16.93;2.60;;;6.80;99.90;;;;;;4904742;29;20442;-58
2022/01/30 01:53:23;;;;;;;7.40;1.53;;;7.00;99.90;;;;;;4903980;29;20466;-57
2022/01/30 01:55:51;;;;;;;5.57;1.30;;;6.80;99.90;;;;;;4903876;29;20477;-56
2022/01/30 01:58:18;;;;;;;7.50;1.17;;;7.10;99.90;;;;;;4904148;29;20486;-52
2022/01/30 02:00:46;;;;;;;15.23;1.97;;;6.90;99.90;;;;;;4903457;29;20498;-55
2022/01/30 02:03:15;;;;;;;4.77;2.47;;;6.90;99.90;;;;;;4903734;29;20474;-56
2022/01/30 02:05:49;;;;;;;5.67;1.27;;;6.80;99.90;;;;;;4904177;29;20558;-54
2022/01/30 02:08:30;;;;;;;4.67;2.10;;;6.80;99.90;;;;;;4904217;29;20478;-57
2022/01/30 02:11:02;;;;;;;14.90;3.33;;;6.80;99.90;;;;;;4904215;29;20527;-57
2022/01/30 02:24:51;;;;;;;4.10;2.30;;;6.90;99.90;;;;;;4903041;29;20459;-57
2022/01/30 02:27:23;;;;;;;3.40;1.67;;;6.90;99.90;;;;;;4903945;29;20515;-59
2022/01/30 02:29:51;;;;;;;4.50;1.57;;;7.00;99.90;;;;;;4902350;29;20553;-59
2022/01/30 02:32:19;;;;;;;10.13;1.60;;;6.90;99.90;;;;;;4903057;29;20467;-54
2022/01/30 02:34:46;;;;;;;15.60;2.87;;;7.00;99.90;;;;;;4903546;29;20481;-51
2022/01/30 02:37:14;;;;;;;10.20;1.40;;;6.90;99.90;;;;;;4902918;29;20479;-56
2022/01/30 02:39:42;;;;;;;8.63;1.23;;;6.90;99.90;;;;;;4905348;29;20751;-58
2022/01/30 02:42:12;;;;;;;3.03;1.13;;;6.90;99.90;;;;;;4907394;29;20496;-60
2022/01/30 02:44:44;;;;;;;11.43;1.67;;;6.90;99.90;;;;;;4907572;29;20617;-55
2022/01/30 02:47:22;;;;;;;2.97;1.20;;;6.80;99.90;;;;;;4907149;29;20783;-57
2022/01/30 02:50:12;;;;;;;5.63;1.80;;;6.90;99.90;;;;;;4905962;29;20525;-55
2022/01/30 02:52:41;;;;;;;2.17;1.20;;;6.90;99.90;;;;;;4906808;29;20448;-51
2022/01/30 02:55:11;;;;;;;10.77;1.63;;;6.80;99.90;;;;;;4906757;29;20462;-58
2022/01/30 02:57:37;;;;;;;3.27;1.37;;;6.80;99.90;;;;;;4906153;29;20442;-59
2022/01/30 03:00:06;;;;;;;11.27;2.37;;;6.80;99.90;;;;;;4905101;29;20471;-59
2022/01/30 03:02:33;;;;;;;5.80;1.60;;;6.90;99.90;;;;;;4906159;29;20495;-54
2022/01/30 03:05:02;;;;;;;12.00;2.70;;;6.80;99.90;;;;;;4905844;29;20459;-59
2022/01/30 03:07:28;;;;;;;2.70;1.43;;;6.70;99.90;;;;;;4906747;29;20471;-56
2022/01/30 03:09:55;;;;;;;7.87;2.00;;;6.70;99.90;;;;;;4906766;29;20984;-58
2022/01/30 03:12:23;;;;;;;10.40;1.30;;;6.70;99.90;;;;;;4907471;29;20909;-59
2022/01/30 03:14:50;;;;;;;1.53;0.93;;;6.70;99.90;;;;;;4906233;29;20508;-58
2022/01/30 03:17:17;;;;;;;9.03;2.63;;;6.70;99.90;;;;;;4906058;29;20495;-56
2022/01/30 03:19:44;;;;;;;9.33;1.83;;;6.80;99.90;;;;;;4906825;29;20510;-54
2022/01/30 03:22:11;;;;;;;20.27;2.10;;;6.70;99.90;;;;;;4907032;29;20522;-58
2022/01/30 03:24:38;;;;;;;1.27;0.93;;;6.60;99.90;;;;;;4909204;29;20492;-58
2022/01/30 03:27:05;;;;;;;10.07;1.67;;;6.40;99.90;;;;;;4909105;29;20458;-60
2022/01/30 03:29:34;;;;;;;2.30;1.10;;;6.30;99.90;;;;;;4908550;29;20459;-59
2022/01/30 03:32:03;;;;;;;3.17;1.23;;;6.30;99.90;;;;;;4908822;29;20463;-59
2022/01/30 03:34:29;;;;;;;1.80;1.40;;;6.30;99.90;;;;;;4909582;29;20487;-60
2022/01/30 03:36:56;;;;;;;4.07;1.00;;;6.20;99.90;;;;;;4908112;29;20494;-60
2022/01/30 03:39:23;;;;;;;7.03;1.20;;;6.20;99.90;;;;;;4908294;29;20443;-59
2022/01/30 03:41:50;;;;;;;14.13;2.87;;;6.30;99.90;;;;;;4911662;29;20518;-57
2022/01/30 03:44:17;;;;;;;2.60;0.90;;;6.30;99.90;;;;;;4911363;29;20495;-53
2022/01/30 03:46:45;;;;;;;1.97;1.20;;;6.30;99.90;;;;;;4911996;29;20514;-49
2022/01/30 03:49:12;;;;;;;5.60;1.20;;;6.30;99.90;;;;;;4911951;29;20463;-59
2022/01/30 03:51:39;;;;;;;8.83;1.43;;;6.30;99.90;;;;;;4911504;29;20781;-57
2022/01/30 03:54:05;;;;;;;15.40;4.20;;;6.30;99.90;;;;;;4911268;29;20458;-55
2022/01/30 03:56:32;;;;;;;1.93;1.33;;;6.30;99.90;;;;;;4910797;29;20542;-61
2022/01/30 03:58:58;;;;;;;6.40;1.33;;;6.30;99.90;;;;;;4910865;29;20483;-59
2022/01/30 04:01:25;;;;;;;8.53;1.97;;;6.40;99.90;;;;;;4909466;29;20502;-57
2022/01/30 04:03:53;;;;;;;5.43;2.37;;;6.40;99.90;;;;;;4911227;29;20429;-56
2022/01/30 04:06:20;;;;;;;6.27;2.13;;;6.30;99.90;;;;;;4910287;29;20987;-59
2022/01/30 04:08:49;;;;;;;4.13;1.83;;;6.10;99.90;;;;;;4911003;29;20475;-54
2022/01/30 04:11:16;;;;;;;9.20;1.43;;;5.90;99.90;;;;;;4912238;29;20510;-56
2022/01/30 04:13:42;;;;;;;1.50;1.00;;;5.70;99.90;;;;;;4911044;29;20482;-55
2022/01/30 04:16:10;;;;;;;7.33;2.80;;;5.50;99.90;;;;;;4912364;29;20510;-56
2022/01/30 04:18:37;;;;;;;9.47;2.33;;;5.40;99.90;;;;;;4912688;29;20456;-59
2022/01/30 04:21:05;;;;;;;1.33;0.93;;;5.30;99.90;;;;;;4913494;29;20493;-57
2022/01/30 04:23:32;;;;;;;4.70;1.57;;;5.20;99.90;;;;;;4914126;29;20461;-52
2022/01/30 04:25:59;;;;;;;4.80;2.17;;;5.20;99.90;;;;;;4914143;29;20505;-59
2022/01/30 04:28:26;;;;;;;6.40;2.13;;;5.20;99.90;;;;;;4913047;29;20435;-54
2022/01/30 04:30:53;;;;;;;3.57;1.17;;;5.20;99.90;;;;;;4912818;29;20491;-53
2022/01/30 04:33:20;;;;;;;1.70;1.30;;;5.20;99.90;;;;;;4913518;29;20447;-57
2022/01/30 04:35:47;;;;;;;8.93;1.33;;;5.30;99.90;;;;;;4911985;29;20447;-56
2022/01/30 04:38:21;;;;;;;12.73;2.60;;;5.40;99.90;;;;;;4911223;29;20474;-59
2022/01/30 04:52:24;;;;;;;3.73;1.47;;;5.70;99.90;;;;;;4910694;29;20439;-59
2022/01/30 04:57:56;;;;;;;2.33;1.00;;;5.70;99.90;;;;;;4910924;29;20515;-57
2022/01/30 05:00:32;;;;;;;6.13;1.27;;;5.70;99.90;;;;;;4911758;29;20465;-56
2022/01/30 05:03:08;;;;;;;7.13;1.37;;;5.70;99.90;;;;;;4911556;29;20976;-56
2022/01/30 05:05:46;;;;;;;8.27;0.90;;;5.70;99.90;;;;;;4910758;29;21038;-58
2022/01/30 05:08:13;;;;;;;5.20;1.37;;;5.70;99.90;;;;;;4910709;29;20479;-58
2022/01/30 05:10:41;;;;;;;1.83;1.47;;;5.80;99.90;;;;;;4910923;29;20483;-55
2022/01/30 05:13:13;;;;;;;14.13;1.90;;;5.70;99.90;;;;;;4912653;29;20458;-55
2022/01/30 05:15:42;;;;;;;11.93;1.50;;;5.70;99.90;;;;;;4893479;29;20476;-56
2022/01/30 05:18:09;;;;;;;5.27;1.63;;;5.70;99.90;;;;;;4892105;29;20523;-59
2022/01/30 05:20:37;;;;;;;3.13;1.10;;;5.70;99.90;;;;;;4911051;29;20843;-56
2022/01/30 05:23:04;;;;;;;2.03;1.30;;;5.60;99.90;;;;;;4912591;29;20486;-58
2022/01/30 05:25:31;;;;;;;6.10;1.93;;;5.70;99.90;;;;;;4911301;29;20458;-56
2022/01/30 05:28:00;;;;;;;9.03;1.60;;;5.60;99.90;;;;;;4910755;29;20839;-53
2022/01/30 05:30:27;;;;;;;9.97;2.10;;;5.60;99.90;;;;;;4912057;29;20461;-60
2022/01/30 05:32:55;;;;;;;6.40;1.70;;;5.70;99.90;;;;;;4910429;29;20482;-60
2022/01/30 05:35:22;;;;;;;4.67;2.10;;;5.80;99.90;;;;;;4909649;29;20463;-57
2022/01/30 05:37:49;;;;;;;7.17;1.10;;;5.80;99.90;;;;;;4909954;29;20520;-58
2022/01/30 05:40:17;;;;;;;3.83;1.87;;;5.80;99.90;;;;;;4910577;29;20505;-55
2022/01/30 05:42:44;;;;;;;5.80;3.70;;;5.90;99.90;;;;;;4911464;29;20486;-62
2022/01/30 05:45:18;;;;;;;6.40;1.30;;;5.90;99.90;;;;;;4911235;29;20542;-59
2022/01/30 05:47:52;;;;;;;4.47;1.87;;;5.90;99.90;;;;;;4910752;29;20537;-59
2022/01/30 05:50:20;;;;;;;7.03;1.20;;;5.90;99.90;;;;;;4909887;29;20518;-59
2022/01/30 05:52:46;;;;;;;7.50;2.83;;;5.90;99.90;;;;;;4910053;29;20459;-51
2022/01/30 05:55:13;;;;;;;5.60;1.50;;;5.80;99.90;;;;;;4910362;29;20474;-57
2022/01/30 05:57:40;;;;;;;2.43;1.20;;;5.80;99.90;;;;;;4911794;29;20450;-60
2022/01/30 06:00:13;;;;;;;10.23;1.90;;;5.80;99.90;;;;;;4911025;29;20518;-57
2022/01/30 06:02:41;;;;;;;6.30;1.50;;;5.70;99.90;;;;;;4911579;29;20585;-59
2022/01/30 06:05:09;;;;;;;2.13;1.47;;;5.70;99.90;;;;;;4910123;29;20461;-57
2022/01/30 06:07:37;;;;;;;2.90;1.23;;;5.70;99.90;;;;;;4910543;29;20466;-60
2022/01/30 06:10:05;;;;;;;4.10;1.60;;;5.70;99.90;;;;;;4910572;29;20558;-58
2022/01/30 06:12:31;;;;;;;7.40;1.97;;;5.80;99.90;;;;;;4910097;29;20451;-58
2022/01/30 06:15:00;;;;;;;1.57;0.70;;;5.80;99.90;;;;;;4910514;29;20478;-57
2022/01/30 06:17:27;;;;;;;9.20;2.10;;;5.80;99.90;;;;;;4910568;29;21004;-54
2022/01/30 06:19:55;;;;;;;9.27;3.40;;;5.90;99.90;;;;;;4910125;29;20514;-59
2022/01/30 06:22:24;;;;;;;9.60;1.83;;;5.90;99.90;;;;;;4911032;29;20490;-57
2022/01/30 06:24:51;;;;;;;4.60;1.57;;;5.90;99.90;;;;;;4910466;29;20436;-54
2022/01/30 06:27:18;;;;;;;3.00;1.23;;;5.90;99.90;;;;;;4911126;29;20478;-55
2022/01/30 06:29:44;;;;;;;5.77;2.20;;;5.90;99.90;;;;;;4911096;29;20839;-57
2022/01/30 06:32:11;;;;;;;3.73;1.60;;;6.00;99.90;;;;;;4910137;29;20475;-53
2022/01/30 06:34:38;;;;;;;4.03;1.43;;;6.00;99.90;;;;;;4909358;29;20455;-56
2022/01/30 06:37:06;;;;;;;8.90;3.50;;;6.00;99.90;;;;;;4910475;29;20479;-59
2022/01/30 06:39:33;;;;;;;0.80;0.60;;;6.00;99.90;;;;;;4910396;29;20443;-37
2022/01/30 06:42:00;;;;;;;6.73;1.30;;;5.90;99.90;;;;;;4910064;29;20491;-38
2022/01/30 06:44:26;;;;;;;6.40;2.10;;;5.90;99.90;;;;;;4910156;29;20462;-41
2022/01/30 06:46:53;;;;;;;6.27;1.53;;;6.00;99.90;;;;;;4898085;29;20448;-42
2022/01/30 06:49:20;;;;;;;1.20;0.60;;;6.00;99.90;;;;;;4906679;29;20451;-39
2022/01/30 06:51:47;;;;;;;9.07;1.73;;;6.00;99.90;;;;;;4920642;29;20463;-38
2022/01/30 06:54:17;;;;;;;3.43;1.27;;;6.00;99.90;;;;;;4920950;29;20439;-38
2022/01/30 06:56:44;;;;;;;18.83;2.87;;;6.00;99.90;;;;;;4920688;29;20450;-40
2022/01/30 06:59:12;;;;;;;10.43;2.50;;;6.00;99.90;;;;;;4921163;29;20511;-37
2022/01/30 07:01:39;;;;;;;5.60;1.90;;;6.10;99.90;;;;;;4919639;29;20495;-42
2022/01/30 07:04:06;;;;;;;11.40;1.37;;;6.10;99.90;;;;;;4920298;29;20514;-38
2022/01/30 07:06:33;;;;;;;6.67;2.03;;;6.20;99.90;;;;;;4918993;29;20443;-38
2022/01/30 07:08:59;;;;;;;3.17;1.37;;;6.20;99.90;;;;;;4919086;29;20507;-32
2022/01/30 07:11:27;;;;;;;17.50;2.50;;;6.30;99.90;;;;;;4918167;29;20446;-37
2022/01/30 07:13:59;;;;;;;3.13;1.20;;;6.30;99.90;;;;;;4917517;29;20466;-39
2022/01/30 07:16:25;;;;;;;4.50;1.67;;;6.30;99.90;;;;;;4917373;29;20478;-36
2022/01/30 07:18:52;;;;;;;9.43;2.63;;;6.40;99.90;;;;;;4918152;29;20459;-38
2022/01/30 07:21:20;;;;;;;8.63;1.60;;;6.40;99.90;;;;;;4918576;29;20423;-41
2022/01/30 07:23:47;;;;;;;3.60;1.10;;;6.50;99.90;;;;;;4917287;29;20475;-33
2022/01/30 07:26:13;;;;;;;5.07;1.13;;;6.50;99.90;;;;;;4919014;29;20491;-39
2022/01/30 07:28:41;;;;;;;14.10;2.40;;;6.50;99.90;;;;;;4917141;29;20454;-51
2022/01/30 07:31:08;;;;;;;7.10;1.27;;;6.50;99.90;;;;;;4916765;29;20450;-49
2022/01/30 07:33:39;;;;;;;9.03;2.37;;;6.50;99.90;;;;;;4917704;29;20455;-47
2022/01/30 07:36:07;;;;;;;3.03;1.70;;;6.50;99.90;;;;;;4917635;29;20452;-51
2022/01/30 07:38:37;;;;;;;10.17;1.30;;;6.50;99.90;;;;;;4917726;29;20457;-47
2022/01/30 07:41:06;;;;;;;25.40;4.07;;;6.50;99.90;;;;;;4918539;29;20480;-50
2022/01/30 07:43:33;;;;;;;15.73;2.10;;;6.50;99.90;;;;;;4917161;29;20525;-57
2022/01/30 07:46:03;;;;;;;4.17;1.30;;;6.50;99.90;;;;;;4917426;29;20471;-47
2022/01/30 07:48:29;;;;;;;2.00;0.97;;;6.50;99.90;;;;;;4918226;29;20470;-55
2022/01/30 07:50:56;;;;;;;14.93;1.77;;;6.50;99.90;;;;;;4917518;29;20475;-48
2022/01/30 07:53:23;;;;;;;5.00;3.73;;;6.50;99.90;;;;;;4917267;29;20445;-47
2022/01/30 07:55:49;;;;;;;19.47;4.60;;;6.50;99.90;;;;;;4919337;29;20485;-55
2022/01/30 07:58:16;;;;;;;7.03;1.20;;;6.50;99.90;;;;;;4918353;29;20468;-56
2022/01/30 08:00:43;;;;;;;2.80;1.23;;;6.50;99.90;;;;;;4918558;29;20476;-59
2022/01/30 08:03:12;;;;;;;10.03;2.33;;;6.60;99.90;;;;;;4918955;29;20466;-55
2022/01/30 08:05:38;;;;;;;2.73;0.83;;;6.60;99.90;;;;;;4918333;29;20454;-52
2022/01/30 08:08:06;;;;;;;9.10;3.27;;;6.60;99.90;;;;;;4919093;29;20455;-53
2022/01/30 08:10:33;;;;;;;4.67;1.50;;;6.60;99.90;;;;;;4919281;29;20434;-55
2022/01/30 08:13:02;;;;;;;9.77;1.80;;;6.60;99.90;;;;;;4918652;29;20462;-58
2022/01/30 08:15:28;;;;;;;10.93;2.93;;;6.60;99.90;;;;;;4918562;29;20459;-57
2022/01/30 08:17:55;;;;;;;7.10;2.70;;;6.60;99.90;;;;;;4918451;29;20497;-52
2022/01/30 08:20:26;;;;;;;6.03;1.40;;;6.60;99.90;;;;;;4918183;29;20454;-53
2022/01/30 08:22:54;;;;;;;8.87;2.37;;;6.60;99.90;;;;;;4917607;29;20587;-59
2022/01/30 08:25:23;;;;;;;12.60;2.20;;;6.60;99.90;;;;;;4919531;29;20470;-55
2022/01/30 08:27:52;;;;;;;15.37;2.40;;;6.60;99.90;;;;;;4920417;29;20502;-54
2022/01/30 08:30:18;;;;;;;6.03;2.60;;;6.50;99.90;;;;;;4922171;29;20444;-56
2022/01/30 08:32:48;;;;;;;7.70;1.70;;;6.60;99.90;;;;;;4921982;29;20435;-51
2022/01/30 08:35:16;;;;;;;26.03;2.60;;;6.60;99.90;;;;;;4922522;29;20472;-58
2022/01/30 08:37:44;;;;;;;7.70;2.27;;;6.60;99.90;;;;;;4922390;29;20447;-53
2022/01/30 08:40:13;;;;;;;3.23;1.30;;;6.60;99.90;;;;;;4921697;29;20502;-53
2022/01/30 08:42:43;;;;;;;3.33;1.20;;;6.60;99.90;;;;;;4921910;29;20470;-57
2022/01/30 08:45:11;;;;;;;2.50;1.10;;;6.60;99.90;;;;;;4921943;29;20497;-56
2022/01/30 08:47:38;;;;;;;2.50;1.97;;;6.70;99.90;;;;;;4922355;29;20481;-56
2022/01/30 08:50:06;;;;;;;6.03;1.67;;;6.70;99.90;;;;;;4922343;29;20499;-57
2022/01/30 08:52:39;;;;;;;8.63;3.70;;;6.70;99.90;;;;;;4921825;29;20937;-53
2022/01/30 08:55:09;;;;;;;11.47;1.93;;;6.60;99.90;;;;;;4921973;29;20451;-57
2022/01/30 08:57:36;;;;;;;12.57;2.00;;;6.70;99.90;;;;;;4921591;29;20433;-54
2022/01/30 09:00:07;;;;;;;1.40;0.80;;;6.80;99.90;;;;;;4921521;29;20511;-56
2022/01/30 09:02:36;;;;;;;16.93;2.90;;;6.80;99.90;;;;;;4921362;29;20468;-53
2022/01/30 09:05:03;;;;;;;4.93;2.27;;;6.80;99.90;;;;;;4920865;29;20439;-54
2022/01/30 09:07:30;;;;;;;5.60;1.70;;;6.80;99.90;;;;;;4920834;29;20470;-57
2022/01/30 09:09:56;;;;;;;4.80;1.77;;;6.90;99.90;;;;;;4920473;29;20467;-56
2022/01/30 09:12:25;;;;;;;4.83;2.30;;;6.90;99.90;;;;;;4920411;29;20507;-55
2022/01/30 09:14:52;;;;;;;4.93;1.40;;;6.90;99.90;;;;;;4920617;29;20952;-54
2022/01/30 09:17:19;;;;;;;4.17;1.70;;;7.00;99.90;;;;;;4920825;29;20475;-49
2022/01/30 09:19:47;;;;;;;3.90;2.07;;;7.00;99.90;;;;;;4921119;29;20455;-51
2022/01/30 09:22:16;;;;;;;4.83;2.27;;;6.90;99.90;;;;;;4920854;29;20495;-54
2022/01/30 09:24:45;;;;;;;11.50;2.63;;;7.00;99.90;;;;;;4920316;29;20471;-54
2022/01/30 09:27:16;;;;;;;14.67;2.67;;;6.90;99.90;;;;;;4920905;29;20452;-46
2022/01/30 09:29:45;;;;;;;8.13;1.60;;;7.10;99.90;;;;;;4921308;29;20469;-54
2022/01/30 09:32:12;;;;;;;9.30;2.03;;;7.20;99.90;;;;;;4920715;29;20476;-55
2022/01/30 09:34:39;;;;;;;7.97;2.30;;;7.20;99.90;;;;;;4921192;29;20483;-56
2022/01/30 09:37:08;;;;;;;20.10;2.87;;;7.20;99.90;;;;;;4920322;29;20454;-52
2022/01/30 09:39:35;;;;;;;3.80;1.33;;;7.20;99.90;;;;;;4920001;29;20499;-54
2022/01/30 09:42:02;;;;;;;7.47;2.20;;;7.30;99.90;;;;;;4920642;29;20482;-53
2022/01/30 09:44:35;;;;;;;5.83;2.20;;;7.30;99.90;;;;;;4920957;29;20492;-56
2022/01/30 09:47:04;;;;;;;27.13;2.20;;;7.30;99.90;;;;;;4920026;29;20450;-59
2022/01/30 09:49:31;;;;;;;11.07;2.47;;;7.20;99.90;;;;;;4921155;29;20539;-51
2022/01/30 09:51:58;;;;;;;10.30;3.30;;;7.20;99.90;;;;;;4921393;29;20472;-58
2022/01/30 09:54:29;;;;;;;20.40;2.63;;;7.20;99.90;;;;;;4921503;29;20484;-56
2022/01/30 09:56:56;;;;;;;8.43;1.80;;;7.30;99.90;;;;;;4920582;29;20445;-55
2022/01/30 09:59:24;;;;;;;7.37;2.30;;;7.20;99.90;;;;;;4920469;29;20462;-61
2022/01/30 10:01:51;;;;;;;6.90;2.40;;;7.20;99.90;;;;;;4920776;29;21009;-56
2022/01/30 10:04:19;;;;;;;9.07;2.40;;;7.20;99.90;;;;;;4920011;29;20490;-52
2022/01/30 10:07:00;;;;;;;4.87;1.70;;;7.20;99.90;;;;;;4919545;29;20476;-56
2022/01/30 10:09:31;;;;;;;12.80;2.90;;;7.20;99.90;;;;;;4919685;29;20506;-55
2022/01/30 10:12:14;;;;;;;13.97;2.97;;;7.20;99.90;;;;;;4918875;29;20480;-54
2022/01/30 10:14:52;;;;;;;5.47;1.90;;;7.30;99.90;;;;;;4919318;29;20481;-46
2022/01/30 10:17:34;;;;;;;2.53;1.33;;;7.20;99.90;;;;;;4921631;29;20471;-48
2022/01/30 10:20:13;;;;;;;10.93;2.00;;;7.10;99.90;;;;;;4926829;29;20441;-45
2022/01/30 10:22:49;;;;;;;8.73;1.43;;;7.10;99.90;;;;;;4920755;29;20465;-52
2022/01/30 10:25:20;;;;;;;10.90;3.77;;;7.10;99.90;;;;;;4921024;29;20454;-54
2022/01/30 10:27:47;;;;;;;8.63;2.67;;;7.10;99.90;;;;;;4920509;29;20443;-50
2022/01/30 10:30:22;;;;;;;16.37;1.80;;;7.10;99.90;;;;;;4918990;29;20449;-53
2022/01/30 10:32:56;;;;;;;5.10;2.13;;;7.10;99.90;;;;;;4920917;29;20428;-48
2022/01/30 10:35:27;;;;;;;6.60;3.23;;;7.10;99.90;;;;;;4920686;29;20765;-56
2022/01/30 10:37:54;;;;;;;19.23;2.30;;;7.10;99.90;;;;;;4920932;29;20487;-55
2022/01/30 10:40:29;;;;;;;13.03;3.40;;;7.10;99.90;;;;;;4920592;29;20526;-50
2022/01/30 10:42:55;;;;;;;17.00;2.80;;;7.10;99.90;;;;;;4921284;29;20456;-62
2022/01/30 10:45:30;;;;;;;4.50;2.33;;;7.10;99.90;;;;;;4920500;29;20479;-57
2022/01/30 10:48:10;;;;;;;6.43;2.70;;;7.30;99.90;;;;;;4920618;29;20447;-49
2022/01/30 10:50:41;;;;;;;6.50;2.10;;;7.30;99.90;;;;;;4918575;29;20473;-55
2022/01/30 10:53:16;;;;;;;8.43;1.77;;;7.30;99.90;;;;;;4919953;29;20470;-53
2022/01/30 10:55:44;;;;;;;14.57;3.93;;;7.20;99.90;;;;;;4920324;29;20484;-53
2022/01/30 10:58:14;;;;;;;16.87;3.57;;;7.20;99.90;;;;;;4920159;29;20471;-52
2022/01/30 11:00:44;;;;;;;5.80;1.87;;;7.20;99.90;;;;;;4919549;29;20462;-53
2022/01/30 11:03:32;;;;;;;10.17;2.87;;;7.30;99.90;;;;;;4918442;29;20475;-57
2022/01/30 11:06:01;;;;;;;12.73;1.90;;;7.30;99.90;;;;;;4909409;29;20912;-59
2022/01/30 11:08:30;;;;;;;5.97;1.60;;;7.30;99.90;;;;;;4904465;29;20482;-58
2022/01/30 11:11:10;;;;;;;15.83;3.53;;;7.30;99.90;;;;;;4904213;29;20464;-58
2022/01/30 11:13:47;;;;;;;15.93;3.10;;;7.30;99.90;;;;;;4904175;29;20498;-59
2022/01/30 11:19:01;;;;;;;10.03;2.03;;;7.40;99.90;;;;;;4903180;29;20956;-54
2022/01/30 11:21:32;;;;;;;14.93;3.63;;;7.50;99.90;;;;;;4902519;29;20451;-56
2022/01/30 11:24:00;;;;;;;4.60;1.47;;;7.60;99.90;;;;;;4903531;29;20504;-58
2022/01/30 11:26:28;;;;;;;11.73;2.57;;;7.50;99.90;;;;;;4904549;29;20452;-59
2022/01/30 11:28:55;;;;;;;9.23;2.60;;;7.40;99.90;;;;;;4903764;29;20456;-59
2022/01/30 11:31:22;;;;;;;8.83;2.40;;;7.40;99.90;;;;;;4904106;29;20548;-57
2022/01/30 11:33:50;;;;;;;15.57;4.13;;;7.50;99.90;;;;;;4904593;29;20447;-60
2022/01/30 11:36:19;;;;;;;6.63;1.37;;;7.40;99.90;;;;;;4904564;29;20475;-56
2022/01/30 11:38:48;;;;;;;9.60;3.10;;;7.40;99.90;;;;;;4903787;29;20436;-52
2022/01/30 11:41:16;;;;;;;16.00;3.03;;;7.50;99.90;;;;;;4903683;29;20793;-55
2022/01/30 11:44:29;;;;;;;13.30;3.60;;;7.50;99.90;;;;;;4903846;29;20562;-59
2022/01/30 11:47:17;;;;;;;9.63;2.37;;;7.50;99.90;;;;;;4903745;29;20460;-58
2022/01/30 11:49:47;;;;;;;7.83;1.90;;;7.50;99.90;;;;;;4905704;29;20447;-58
2022/01/30 11:52:16;;;;;;;4.27;2.10;;;7.60;99.90;;;;;;4906216;29;20451;-54
2022/01/30 11:54:46;;;;;;;7.83;2.20;;;7.50;99.90;;;;;;4905961;29;20451;-61
2022/01/30 11:57:51;;;;;;;15.47;2.30;;;7.60;99.90;;;;;;4904051;29;20940;-59
2022/01/30 12:00:38;;;;;;;15.03;2.60;;;7.60;99.90;;;;;;4902125;29;20467;-56
2022/01/30 12:03:26;;;;;;;19.90;3.20;;;7.50;99.90;;;;;;4907966;29;20442;-60
2022/01/30 12:05:53;;;;;;;58.20;4.27;;;7.50;99.90;;;;;;4907640;29;20483;-59
2022/01/30 12:08:44;;;;;;;19.47;3.10;;;7.60;99.90;;;;;;4908310;29;20473;-55
2022/01/30 12:11:47;;;;;;;10.40;2.57;;;7.50;99.90;;;;;;4908136;29;20488;-56
2022/01/30 12:14:52;;;;;;;6.10;2.10;;;7.50;99.90;;;;;;4907955;29;20456;-59
2022/01/30 12:17:57;;;;;;;11.03;3.67;;;7.50;99.90;;;;;;4908170;29;20591;-61
2022/01/30 12:20:27;;;;;;;11.07;2.47;;;7.50;99.90;;;;;;4907689;29;20528;-60
2022/01/30 12:22:55;;;;;;;9.43;2.33;;;7.60;99.90;;;;;;4906724;29;20528;-58
2022/01/30 12:25:39;;;;;;;23.47;4.57;;;7.60;99.90;;;;;;4906787;29;20535;-58
2022/01/30 12:28:11;;;;;;;8.20;2.57;;;7.60;99.90;;;;;;4907330;29;20536;-60
2022/01/30 12:30:50;;;;;;;12.60;3.00;;;7.60;99.90;;;;;;4907440;29;20466;-58
2022/01/30 12:33:45;;;;;;;23.00;3.10;;;7.50;99.90;;;;;;4906809;29;20458;-52
2022/01/30 12:36:16;;;;;;;11.37;3.17;;;7.60;99.90;;;;;;4906920;29;20427;-57
2022/01/30 12:38:43;;;;;;;6.67;2.50;;;7.60;99.90;;;;;;4906762;29;20480;-58
2022/01/30 12:41:15;;;;;;;7.90;3.13;;;7.60;99.90;;;;;;4905875;29;20452;-58
2022/01/30 12:43:41;;;;;;;13.83;3.27;;;7.70;99.90;;;;;;4905033;29;20594;-58
2022/01/30 12:46:10;;;;;;;11.97;2.13;;;7.60;99.90;;;;;;4899522;29;20445;-60
2022/01/30 12:48:37;;;;;;;16.03;3.33;;;7.70;99.90;;;;;;4902479;29;20452;-58
2022/01/30 12:51:07;;;;;;;17.43;3.20;;;7.70;99.90;;;;;;4885434;29;20959;-59
2022/01/30 12:53:37;;;;;;;6.10;3.00;;;7.70;99.90;;;;;;4884696;29;20463;-55
2022/01/30 12:56:05;;;;;;;21.23;4.10;;;7.70;99.90;;;;;;4885113;29;20991;-56
2022/01/30 12:58:35;;;;;;;13.30;4.03;;;7.80;99.90;;;;;;4887727;29;20881;-61
2022/01/30 13:01:09;;;;;;;16.73;3.70;;;7.80;99.90;;;;;;4887032;29;20471;-59
2022/01/30 13:03:36;;;;;;;13.27;4.30;;;7.80;99.90;;;;;;4885437;29;20498;-58
2022/01/30 13:06:03;;;;;;;10.50;2.53;;;7.90;99.90;;;;;;4884933;29;20445;-58
2022/01/30 13:08:48;;;;;;;13.77;3.53;;;7.80;99.90;;;;;;4885395;29;20548;-58
2022/01/30 13:11:17;;;;;;;12.17;2.80;;;7.80;99.90;;;;;;4895753;29;20513;-59
2022/01/30 13:13:56;;;;;;;25.17;3.10;;;7.80;99.90;;;;;;4921843;29;20454;-59
2022/01/30 13:16:28;;;;;;;7.93;2.70;;;7.80;99.90;;;;;;4923005;29;20448;-58
2022/01/30 13:18:55;;;;;;;8.03;3.50;;;7.80;99.90;;;;;;4922069;29;20505;-53
2022/01/30 13:21:24;;;;;;;17.70;2.73;;;7.90;99.90;;;;;;4922794;29;20765;-58
2022/01/30 13:23:52;;;;;;;14.87;4.57;;;7.80;99.90;;;;;;4924475;29;20470;-56
2022/01/30 13:26:42;;;;;;;26.67;5.33;;;7.80;99.90;;;;;;4922458;29;20479;-60
2022/01/30 13:29:15;;;;;;;24.63;4.03;;;7.80;99.90;;;;;;4922563;29;20441;-57
2022/01/30 13:31:42;;;;;;;6.23;3.20;;;7.70;99.90;;;;;;4922507;29;20539;-55
2022/01/30 13:34:18;;;;;;;31.40;5.47;;;7.70;99.90;;;;;;4923635;29;20457;-59
2022/01/30 13:36:53;;;;;;;13.03;3.30;;;7.60;99.90;;;;;;4922546;29;20476;-58
2022/01/30 13:39:33;;;;;;;10.13;2.83;;;7.60;99.90;;;;;;4922054;29;20957;-59
2022/01/30 13:42:30;;;;;;;16.17;2.30;;;7.60;99.90;;;;;;4922149;29;20936;-56